TimePST,TemperatureF,Dew PointF,Humidity,Sea Level PressureIn,VisibilityMPH,Wind Direction,Wind SpeedMPH,Gust SpeedMPH,PrecipitationIn,Events,Conditions,WindDirDegrees,DateUTC
12:53 AM,39.0,37.0,93,30.39,9.0,Calm,Calm,-,N/A,,Overcast,0,2012-12-09 08:53:00
1:50 AM,39.2,37.4,93,30.38,10.0,Calm,Calm,-,0.00,,Overcast,0,2012-12-09 09:50:00
1:53 AM,39.0,37.0,93,30.39,10.0,Calm,Calm,-,0.00,,Overcast,0,2012-12-09 09:53:00
2:15 AM,39.2,37.4,93,30.38,10.0,Calm,Calm,-,N/A,,Overcast,0,2012-12-09 10:15:00
2:43 AM,39.2,37.4,93,30.38,10.0,Calm,Calm,-,N/A,,Overcast,0,2012-12-09 10:43:00
2:53 AM,39.0,37.0,93,30.40,10.0,Calm,Calm,-,N/A,,Overcast,0,2012-12-09 10:53:00
3:30 AM,39.2,37.4,93,30.39,10.0,Calm,Calm,-,N/A,,Overcast,0,2012-12-09 11:30:00
3:50 AM,39.2,37.4,93,30.38,10.0,Calm,Calm,-,0.00,,Overcast,0,2012-12-09 11:50:00
3:53 AM,39.0,37.0,93,30.40,10.0,Calm,Calm,-,0.00,,Overcast,0,2012-12-09 11:53:00
4:21 AM,39.2,37.4,93,30.39,10.0,Calm,Calm,-,N/A,,Overcast,0,2012-12-09 12:21:00
4:53 AM,39.0,37.9,96,30.41,9.0,Calm,Calm,-,N/A,,Overcast,0,2012-12-09 12:53:00
5:00 AM,39.2,37.4,93,30.40,9.0,Calm,Calm,-,N/A,,Overcast,0,2012-12-09 13:00:00
5:53 AM,39.9,37.0,89,30.42,10.0,Calm,Calm,-,N/A,,Overcast,0,2012-12-09 13:53:00
6:15 AM,39.2,37.4,93,30.41,10.0,Calm,Calm,-,N/A,,Overcast,0,2012-12-09 14:15:00
6:53 AM,39.0,37.0,93,30.43,10.0,Calm,Calm,-,N/A,,Overcast,0,2012-12-09 14:53:00
7:53 AM,37.9,37.0,97,30.43,7.0,SE,3.5,-,N/A,,Scattered Clouds,130,2012-12-09 15:53:00
8:34 AM,39.2,37.4,93,30.42,6.0,Calm,Calm,-,N/A,,Mostly Cloudy,0,2012-12-09 16:34:00
8:53 AM,39.0,37.0,93,30.43,5.0,SSE,5.8,-,N/A,,Overcast,150,2012-12-09 16:53:00
9:53 AM,41.0,37.9,89,30.45,10.0,SSE,4.6,-,N/A,,Overcast,150,2012-12-09 17:53:00
10:53 AM,44.1,37.9,79,30.45,10.0,Calm,Calm,-,N/A,,Overcast,0,2012-12-09 18:53:00
11:53 AM,46.0,37.9,73,30.43,10.0,Calm,Calm,-,N/A,,Overcast,0,2012-12-09 19:53:00
12:53 PM,48.0,39.0,71,30.40,10.0,Calm,Calm,-,N/A,,Overcast,0,2012-12-09 20:53:00
1:53 PM,50.0,39.0,66,30.39,10.0,Calm,Calm,-,N/A,,Overcast,0,2012-12-09 21:53:00
2:53 PM,52.0,39.0,61,30.40,10.0,Calm,Calm,-,N/A,,Overcast,0,2012-12-09 22:53:00
3:53 PM,51.1,39.0,63,30.40,10.0,Calm,Calm,-,N/A,,Overcast,0,2012-12-09 23:53:00
4:53 PM,51.1,39.9,66,30.40,10.0,Calm,Calm,-,N/A,,Overcast,0,2012-12-10 00:53:00
5:53 PM,48.9,41.0,74,30.40,10.0,Calm,Calm,-,N/A,,Overcast,0,2012-12-10 01:53:00
6:53 PM,46.0,41.0,83,30.40,9.0,Calm,Calm,-,N/A,,Scattered Clouds,0,2012-12-10 02:53:00
7:53 PM,46.0,42.1,86,30.41,10.0,Calm,Calm,-,N/A,,Overcast,0,2012-12-10 03:53:00
8:53 PM,46.0,42.1,86,30.41,10.0,Calm,Calm,-,N/A,,Overcast,0,2012-12-10 04:53:00
9:53 PM,46.0,42.1,86,30.42,10.0,Calm,Calm,-,N/A,,Overcast,0,2012-12-10 05:53:00
10:53 PM,46.0,42.1,86,30.42,10.0,Calm,Calm,-,N/A,,Overcast,0,2012-12-10 06:53:00
11:53 PM,46.0,42.1,86,30.43,10.0,Calm,Calm,-,N/A,,Unknown,0,2012-12-10 07:53:00